createdAt,value
2018-09-22T00:01:57.928Z,12.49
2018-09-22T00:04:26.083Z,12.41
2018-09-22T00:06:54.152Z,12.43
2018-09-22T00:09:22.304Z,12.41
2018-09-22T00:11:50.395Z,12.36
2018-09-22T00:14:18.565Z,12.43
2018-09-22T00:16:46.641Z,12.28
2018-09-22T00:19:14.750Z,12.33
2018-09-22T00:21:42.951Z,12.11
2018-09-22T00:24:11.011Z,12.10
2018-09-22T00:26:39.083Z,11.97
2018-09-22T00:29:07.260Z,12.15
2018-09-22T00:31:35.356Z,12.25
2018-09-22T00:34:03.471Z,12.04
2018-09-22T00:36:31.547Z,11.91
2018-09-22T00:38:59.636Z,12.02
2018-09-22T00:41:27.717Z,11.93
2018-09-22T00:43:55.786Z,12.05
2018-09-22T00:46:23.884Z,12.12
2018-09-22T00:48:51.970Z,12.13
2018-09-22T00:51:20.069Z,12.07
2018-09-22T00:53:48.155Z,12.17
2018-09-22T00:56:16.323Z,12.22
2018-09-22T00:58:44.495Z,12.43
2018-09-22T01:01:12.575Z,12.27
2018-09-22T01:03:40.660Z,12.34
2018-09-22T01:06:08.719Z,12.46
2018-09-22T01:08:36.803Z,12.21
2018-09-22T01:11:04.900Z,12.26
2018-09-22T01:13:32.972Z,12.22
2018-09-22T01:16:01.132Z,12.28
2018-09-22T01:18:29.203Z,12.20
2018-09-22T01:20:57.291Z,12.11
2018-09-22T01:23:25.365Z,12.04
2018-09-22T01:25:53.431Z,12.04
2018-09-22T01:28:21.547Z,12.19
2018-09-22T01:30:49.666Z,12.31
2018-09-22T01:33:17.779Z,12.16
2018-09-22T01:35:45.887Z,12.02
2018-09-22T01:38:13.951Z,12.01
2018-09-22T01:40:42.027Z,11.90
2018-09-22T01:43:10.103Z,11.95
2018-09-22T01:45:38.207Z,11.88
2018-09-22T01:48:06.319Z,11.76
2018-09-22T01:50:34.477Z,11.78
2018-09-22T01:53:02.520Z,11.66
2018-09-22T01:55:30.599Z,11.73
2018-09-22T01:57:58.677Z,11.76
2018-09-22T02:00:26.755Z,11.71
2018-09-22T02:02:54.844Z,11.60
2018-09-22T02:05:22.951Z,11.48
2018-09-22T02:07:51.092Z,11.51
2018-09-22T02:10:19.172Z,11.50
2018-09-22T02:12:47.268Z,11.41
2018-09-22T02:15:15.341Z,11.44
2018-09-22T02:17:43.422Z,11.44
2018-09-22T02:20:11.500Z,11.45
2018-09-22T02:22:39.563Z,11.46
2018-09-22T02:25:07.855Z,11.66
2018-09-22T02:27:35.940Z,11.63
2018-09-22T02:30:04.058Z,11.66
2018-09-22T02:32:32.131Z,11.67
2018-09-22T02:35:00.276Z,11.74
2018-09-22T02:37:28.367Z,11.72
2018-09-22T02:39:56.444Z,11.75
2018-09-22T02:42:24.539Z,11.76
2018-09-22T02:44:52.632Z,11.76
2018-09-22T02:47:20.725Z,11.76
2018-09-22T02:49:48.836Z,11.80
2018-09-22T02:52:16.910Z,11.86
2018-09-22T02:54:45.010Z,11.88
2018-09-22T02:57:13.074Z,12.06
2018-09-22T02:59:41.148Z,12.05
2018-09-22T03:02:09.320Z,11.96
2018-09-22T03:04:37.443Z,11.95
2018-09-22T03:07:05.515Z,12.02
2018-09-22T03:09:33.586Z,11.91
2018-09-22T03:12:01.678Z,11.81
2018-09-22T03:14:29.735Z,11.81
2018-09-22T03:16:57.809Z,11.73
2018-09-22T03:19:25.892Z,11.73
2018-09-22T03:21:54.003Z,11.72
2018-09-22T03:24:22.063Z,11.81
2018-09-22T03:26:50.167Z,11.67
2018-09-22T03:29:18.302Z,11.69
2018-09-22T03:31:46.382Z,11.76
2018-09-22T03:34:14.448Z,11.60
2018-09-22T03:36:42.523Z,11.78
2018-09-22T03:39:11.634Z,11.83
2018-09-22T03:41:40.007Z,11.73
2018-09-22T03:44:08.504Z,11.59
2018-09-22T03:46:36.602Z,11.61
2018-09-22T03:49:04.666Z,11.68
2018-09-22T03:51:32.811Z,11.61
2018-09-22T03:54:00.889Z,11.68
2018-09-22T03:56:29.001Z,11.68
2018-09-22T03:58:57.061Z,11.71
2018-09-22T04:01:25.127Z,11.66
2018-09-22T04:03:53.206Z,11.56
2018-09-22T04:06:21.499Z,11.66
2018-09-22T04:08:49.614Z,11.63
2018-09-22T04:11:17.720Z,11.62
2018-09-22T04:13:45.898Z,11.68
2018-09-22T04:16:13.996Z,11.66
2018-09-22T04:18:42.128Z,11.61
2018-09-22T04:21:10.267Z,11.74
2018-09-22T04:23:44.624Z,11.65
2018-09-22T04:26:12.722Z,11.63
2018-09-22T04:28:40.837Z,11.47
2018-09-22T04:31:08.881Z,11.47
2018-09-22T04:33:36.957Z,11.50
2018-09-22T04:36:05.037Z,11.47
2018-09-22T04:38:33.165Z,11.47
2018-09-22T04:41:01.226Z,11.56
2018-09-22T04:43:29.323Z,11.52
2018-09-22T04:45:57.421Z,11.48
2018-09-22T04:48:25.495Z,11.48
2018-09-22T04:50:53.602Z,11.48
2018-09-22T04:53:21.656Z,11.44
2018-09-22T04:55:49.728Z,11.41
2018-09-22T04:58:17.803Z,11.43
2018-09-22T05:00:45.886Z,11.45
2018-09-22T05:03:14.046Z,11.33
2018-09-22T05:05:42.124Z,11.44
2018-09-22T05:08:10.178Z,11.57
2018-09-22T05:10:38.255Z,11.41
2018-09-22T05:13:06.343Z,11.41
2018-09-22T05:15:34.415Z,11.47
2018-09-22T05:18:02.498Z,11.49
2018-09-22T05:20:30.573Z,11.42
2018-09-22T05:22:58.625Z,11.44
2018-09-22T05:25:26.779Z,11.40
2018-09-22T05:27:54.919Z,11.37
2018-09-22T05:30:22.991Z,11.48
2018-09-22T05:32:51.160Z,11.59
2018-09-22T05:35:19.243Z,11.53
2018-09-22T05:37:47.343Z,11.45
2018-09-22T05:40:15.420Z,11.50
2018-09-22T05:42:43.492Z,11.52
2018-09-22T05:45:11.575Z,11.62
2018-09-22T05:47:39.693Z,11.72
2018-09-22T05:50:07.784Z,11.95
2018-09-22T05:52:35.868Z,11.91
2018-09-22T05:55:03.953Z,11.77
2018-09-22T05:57:32.094Z,11.76
2018-09-22T06:00:00.294Z,11.83
2018-09-22T06:02:28.393Z,11.81
2018-09-22T06:04:56.443Z,11.75
2018-09-22T06:07:24.592Z,11.89
2018-09-22T06:09:52.679Z,11.92
2018-09-22T06:12:20.791Z,11.97
2018-09-22T06:14:48.888Z,11.97
2018-09-22T06:17:16.972Z,12.05
2018-09-22T06:19:45.048Z,12.15
2018-09-22T06:22:13.141Z,12.02
2018-09-22T06:24:41.243Z,12.03
2018-09-22T06:27:09.368Z,12.06
2018-09-22T06:29:37.451Z,12.13
2018-09-22T06:32:05.523Z,12.22
2018-09-22T06:34:33.847Z,12.36
2018-09-22T06:37:02.045Z,12.57
2018-09-22T06:39:30.225Z,12.69
2018-09-22T06:41:58.489Z,12.63
2018-09-22T06:44:26.813Z,12.74
2018-09-22T06:46:55.014Z,12.62
2018-09-22T06:49:23.212Z,12.61
2018-09-22T06:51:51.788Z,12.62
2018-09-22T06:54:20.251Z,12.73
2018-09-22T06:56:48.449Z,12.54
2018-09-22T06:59:16.737Z,12.75
2018-09-22T07:01:44.918Z,12.80
2018-09-22T07:04:13.335Z,12.77
2018-09-22T07:06:41.703Z,13.02
2018-09-22T07:09:10.068Z,13.15
2018-09-22T07:11:38.238Z,13.37
2018-09-22T07:14:06.830Z,13.40
2018-09-22T07:16:35.687Z,13.46
2018-09-22T07:19:03.982Z,13.46
2018-09-22T07:21:39.305Z,13.33
2018-09-22T07:24:07.752Z,13.53
2018-09-22T07:26:36.057Z,13.61
2018-09-22T07:29:04.292Z,13.73
2018-09-22T07:31:32.592Z,13.78
2018-09-22T07:34:00.925Z,13.80
2018-09-22T07:36:29.196Z,13.98
2018-09-22T07:38:57.389Z,13.78
2018-09-22T07:41:26.673Z,13.81
2018-09-22T07:43:54.980Z,13.86
2018-09-22T07:46:25.358Z,13.81
2018-09-22T07:48:53.801Z,13.85
2018-09-22T07:51:22.081Z,13.82
2018-09-22T07:53:50.372Z,13.96
2018-09-22T07:56:18.593Z,14.17
2018-09-22T07:58:46.667Z,14.14
2018-09-22T08:01:14.732Z,13.97
2018-09-22T08:03:42.797Z,14.02
2018-09-22T08:06:10.895Z,14.03
2018-09-22T08:08:38.958Z,14.21
2018-09-22T08:11:07.040Z,14.28
2018-09-22T08:13:35.163Z,13.96
2018-09-22T08:16:03.324Z,14.21
2018-09-22T08:18:31.400Z,14.50
2018-09-22T08:20:59.463Z,14.37
2018-09-22T08:23:27.589Z,14.31
2018-09-22T08:25:55.679Z,14.45
2018-09-22T08:28:23.967Z,14.47
2018-09-22T08:30:52.147Z,14.68
2018-09-22T08:33:20.268Z,14.84
2018-09-22T08:35:48.343Z,14.88
2018-09-22T08:38:16.443Z,14.91
2018-09-22T08:40:44.514Z,14.71
2018-09-22T08:43:12.583Z,14.86
2018-09-22T08:45:40.653Z,14.96
2018-09-22T08:48:08.732Z,15.12
2018-09-22T08:50:36.887Z,15.06
2018-09-22T08:53:04.994Z,15.06
2018-09-22T08:55:33.132Z,15.12
2018-09-22T08:58:01.217Z,15.35
2018-09-22T09:00:29.319Z,15.18
2018-09-22T09:02:57.409Z,15.14
2018-09-22T09:05:25.491Z,15.00
2018-09-22T09:07:53.632Z,15.19
2018-09-22T09:10:21.700Z,15.15
2018-09-22T09:12:49.806Z,15.17
2018-09-22T09:15:17.901Z,15.28
2018-09-22T09:17:46.060Z,15.31
2018-09-22T09:20:14.224Z,15.34
2018-09-22T09:22:42.791Z,15.38
2018-09-22T09:25:10.895Z,15.38
2018-09-22T09:27:39.128Z,15.59
2018-09-22T09:30:07.150Z,15.49
2018-09-22T09:32:35.223Z,15.30
2018-09-22T09:35:03.306Z,15.51
2018-09-22T09:37:31.443Z,15.76
2018-09-22T09:39:59.561Z,16.01
2018-09-22T09:42:27.632Z,16.10
2018-09-22T09:44:55.705Z,16.20
2018-09-22T09:47:23.796Z,16.18
2018-09-22T09:49:51.867Z,16.34
2018-09-22T09:52:19.945Z,16.56
2018-09-22T09:54:48.105Z,16.42
2018-09-22T09:57:16.120Z,16.56
2018-09-22T09:59:44.206Z,16.53
2018-09-22T10:02:12.288Z,16.77
2018-09-22T10:04:40.372Z,16.76
2018-09-22T10:07:08.515Z,16.78
2018-09-22T10:09:42.907Z,16.93
2018-09-22T10:12:10.977Z,16.99
2018-09-22T10:14:39.041Z,16.88
2018-09-22T10:17:07.119Z,16.91
2018-09-22T10:19:35.268Z,16.97
2018-09-22T10:22:03.396Z,17.13
2018-09-22T10:24:31.555Z,17.19
2018-09-22T10:26:59.643Z,17.23
2018-09-22T10:29:27.722Z,17.09
2018-09-22T10:31:55.839Z,16.86
2018-09-22T10:34:23.940Z,17.04
2018-09-22T10:36:52.008Z,16.90
2018-09-22T10:39:20.150Z,17.17
2018-09-22T10:41:48.252Z,17.32
2018-09-22T10:44:16.323Z,17.10
2018-09-22T10:46:44.387Z,17.35
2018-09-22T10:49:12.480Z,17.55
2018-09-22T10:51:40.539Z,17.75
2018-09-22T10:54:08.627Z,17.99
2018-09-22T10:56:36.767Z,17.65
2018-09-22T10:59:05.022Z,17.66
2018-09-22T11:01:33.100Z,17.85
2018-09-22T11:04:01.181Z,17.93
2018-09-22T11:06:29.241Z,18.06
2018-09-22T11:08:57.335Z,18.24
2018-09-22T11:11:25.430Z,18.31
2018-09-22T11:13:53.480Z,18.38
2018-09-22T11:16:21.542Z,18.51
2018-09-22T11:18:49.697Z,18.53
2018-09-22T11:21:17.755Z,18.50
2018-09-22T11:23:45.852Z,18.65
2018-09-22T11:26:13.940Z,18.62
2018-09-22T11:28:42.029Z,18.22
2018-09-22T11:31:10.314Z,18.21
2018-09-22T11:33:38.395Z,18.52
2018-09-22T11:36:06.753Z,18.44
2018-09-22T11:38:34.842Z,18.63
2018-09-22T11:41:02.919Z,18.69
2018-09-22T11:43:31.004Z,18.62
2018-09-22T11:45:59.083Z,18.96
2018-09-22T11:48:27.146Z,19.05
2018-09-22T11:50:55.219Z,19.21
2018-09-22T11:53:23.280Z,19.44
2018-09-22T11:55:51.357Z,19.56
2018-09-22T11:58:19.463Z,19.49
2018-09-22T12:00:47.540Z,19.48
2018-09-22T12:03:15.608Z,19.49
2018-09-22T12:05:43.679Z,19.22
2018-09-22T12:08:11.799Z,18.98
2018-09-22T12:10:39.873Z,18.98
2018-09-22T12:13:07.936Z,19.11
2018-09-22T12:15:36.024Z,18.97
2018-09-22T12:18:04.109Z,19.01
2018-09-22T12:20:32.177Z,19.12
2018-09-22T12:23:00.256Z,19.32
2018-09-22T12:25:28.328Z,19.44
2018-09-22T12:27:56.595Z,19.56
2018-09-22T12:30:24.670Z,19.41
2018-09-22T12:32:52.771Z,19.73
2018-09-22T12:35:20.875Z,19.81
2018-09-22T12:37:49.123Z,20.02
2018-09-22T12:40:17.220Z,19.72
2018-09-22T12:42:45.300Z,19.61
2018-09-22T12:45:14.032Z,19.59
2018-09-22T12:47:42.526Z,19.52
2018-09-22T12:50:10.870Z,19.46
2018-09-22T12:52:39.103Z,19.54
2018-09-22T12:55:07.812Z,19.48
2018-09-22T12:57:36.171Z,19.47
2018-09-22T13:00:04.539Z,19.62
2018-09-22T13:02:33.153Z,19.57
2018-09-22T13:05:01.747Z,19.52
2018-09-22T13:07:30.940Z,19.34
2018-09-22T13:09:59.156Z,19.24
2018-09-22T13:12:27.427Z,19.44
2018-09-22T13:14:55.642Z,19.56
2018-09-22T13:17:23.827Z,19.69
2018-09-22T13:19:52.117Z,19.56
2018-09-22T13:22:20.370Z,19.63
2018-09-22T13:24:48.717Z,19.75
2018-09-22T13:27:17.009Z,19.58
2018-09-22T13:29:48.085Z,19.66
2018-09-22T13:32:16.326Z,19.65
2018-09-22T13:34:44.508Z,19.46
2018-09-22T13:37:12.913Z,19.11
2018-09-22T13:39:41.177Z,19.14
2018-09-22T13:42:09.498Z,19.06
2018-09-22T13:44:37.744Z,19.19
2018-09-22T13:47:06.079Z,19.22
2018-09-22T13:49:34.374Z,19.30
2018-09-22T13:52:02.648Z,19.16
2018-09-22T13:54:30.947Z,19.03
2018-09-22T13:56:59.160Z,19.33
2018-09-22T13:59:27.551Z,19.31
2018-09-22T14:01:55.966Z,19.39
2018-09-22T14:04:24.302Z,19.37
2018-09-22T14:06:52.563Z,19.34
2018-09-22T14:09:37.011Z,19.20
2018-09-22T14:12:05.460Z,19.33
2018-09-22T14:14:33.695Z,19.35
2018-09-22T14:17:01.959Z,19.33
2018-09-22T14:19:30.490Z,19.37
2018-09-22T14:35:53.023Z,19.15
2018-09-22T14:38:21.129Z,18.81
2018-09-22T14:40:49.222Z,18.95
2018-09-22T14:43:17.414Z,19.06
2018-09-22T14:45:45.712Z,19.04
2018-09-22T14:48:14.085Z,19.19
2018-09-22T14:50:42.271Z,19.44
2018-09-22T14:53:10.495Z,19.48
2018-09-22T14:55:38.801Z,19.41
2018-09-22T14:58:07.203Z,19.29
2018-09-22T15:00:35.551Z,19.32
2018-09-22T15:03:03.760Z,19.15
2018-09-22T15:05:31.987Z,19.29
2018-09-22T15:08:00.896Z,19.13
2018-09-22T15:10:28.985Z,19.16
2018-09-22T15:12:57.068Z,19.02
2018-09-22T15:15:25.150Z,18.89
2018-09-22T15:17:53.271Z,18.72
2018-09-22T15:20:21.353Z,18.80
2018-09-22T15:22:49.451Z,18.73
2018-09-22T15:25:17.512Z,18.77
2018-09-22T15:27:45.597Z,18.63
2018-09-22T15:30:13.660Z,18.46
2018-09-22T15:32:41.755Z,18.58
2018-09-22T15:35:10.140Z,18.41
2018-09-22T15:37:38.259Z,18.55
2018-09-22T15:40:06.799Z,18.61
2018-09-22T15:42:34.953Z,18.71
2018-09-22T15:45:03.022Z,18.61
2018-09-22T15:47:31.095Z,18.52
2018-09-22T15:49:59.264Z,18.32
2018-09-22T15:52:27.368Z,17.99
2018-09-22T15:54:56.531Z,18.01
2018-09-22T15:57:24.635Z,17.91
2018-09-22T15:59:52.702Z,17.82
2018-09-22T16:02:20.788Z,17.77
2018-09-22T16:04:48.900Z,17.69
2018-09-22T16:07:16.995Z,17.67
2018-09-22T16:09:45.073Z,17.64
2018-09-22T16:12:16.223Z,17.43
2018-09-22T16:14:44.384Z,17.52
2018-09-22T16:17:12.474Z,17.37
2018-09-22T16:19:40.556Z,17.33
2018-09-22T16:22:08.623Z,17.10
2018-09-22T16:24:36.708Z,17.02
2018-09-22T16:27:04.807Z,17.14
2018-09-22T16:29:32.941Z,16.95
2018-09-22T16:32:01.039Z,16.95
2018-09-22T16:34:29.115Z,16.86
2018-09-22T16:36:57.191Z,16.79
2018-09-22T16:39:25.283Z,16.73
2018-09-22T16:41:53.350Z,16.47
2018-09-22T16:44:21.596Z,16.27
2018-09-22T16:46:49.671Z,16.12
2018-09-22T16:49:17.809Z,16.13
2018-09-22T16:51:45.916Z,16.05
2018-09-22T16:54:14.000Z,16.08
2018-09-22T16:56:42.127Z,16.00
2018-09-22T16:59:10.432Z,15.92
2018-09-22T17:01:38.531Z,15.84
2018-09-22T17:04:06.650Z,15.64
2018-09-22T17:06:34.680Z,15.77
2018-09-22T17:09:02.775Z,15.91
2018-09-22T17:11:30.872Z,15.77
2018-09-22T17:13:58.951Z,15.90
2018-09-22T17:16:27.088Z,15.83
2018-09-22T17:18:55.156Z,15.80
2018-09-22T17:21:23.227Z,15.76
2018-09-22T17:23:51.283Z,15.93
2018-09-22T17:26:19.418Z,15.87
2018-09-22T17:28:47.508Z,15.80
2018-09-22T17:31:15.564Z,15.95
2018-09-22T17:33:43.637Z,16.01
2018-09-22T17:36:11.708Z,15.90
2018-09-22T17:38:39.772Z,15.90
2018-09-22T17:41:07.851Z,15.85
2018-09-22T17:43:35.934Z,15.89
2018-09-22T17:46:04.103Z,15.79
2018-09-22T17:48:32.200Z,15.75
2018-09-22T17:51:01.306Z,15.24
2018-09-22T17:53:29.538Z,15.03
2018-09-22T17:55:58.976Z,14.96
2018-09-22T17:58:28.382Z,14.85
2018-09-22T18:00:56.623Z,14.80
2018-09-22T18:03:27.891Z,14.73
2018-09-22T18:05:56.241Z,14.56
2018-09-22T18:08:24.687Z,14.64
2018-09-22T18:10:56.820Z,14.51
2018-09-22T18:13:26.425Z,14.67
2018-09-22T18:15:55.106Z,14.59
2018-09-22T18:18:23.458Z,14.47
2018-09-22T18:20:51.996Z,14.26
2018-09-22T18:23:21.554Z,14.20
2018-09-22T18:25:52.308Z,14.26
2018-09-22T18:28:24.557Z,14.24
2018-09-22T18:30:55.144Z,14.41
2018-09-22T18:33:23.592Z,14.47
2018-09-22T18:35:55.143Z,14.54
2018-09-22T18:38:27.835Z,14.43
2018-09-22T18:40:59.069Z,14.38
2018-09-22T18:43:30.113Z,14.28
2018-09-22T18:46:00.537Z,14.35
2018-09-22T18:48:28.870Z,14.46
2018-09-22T18:50:58.565Z,14.38
2018-09-22T18:53:28.315Z,14.44
2018-09-22T18:55:57.588Z,14.47
2018-09-22T18:58:25.807Z,14.45
2018-09-22T19:00:55.192Z,14.60
2018-09-22T19:03:25.593Z,14.62
2018-09-22T19:05:55.592Z,14.70
2018-09-22T19:08:25.661Z,14.67
2018-09-22T19:10:54.306Z,14.33
2018-09-22T19:13:26.951Z,14.22
2018-09-22T19:16:03.040Z,14.29
2018-09-22T19:18:35.215Z,14.34
2018-09-22T19:21:12.480Z,14.41
2018-09-22T19:23:49.539Z,14.50
2018-09-22T19:26:26.693Z,14.53
2018-09-22T19:29:03.472Z,14.47
2018-09-22T19:31:37.457Z,14.21
2018-09-22T19:34:10.401Z,14.12
2018-09-22T19:36:41.798Z,14.23
2018-09-22T19:40:23.613Z,14.33
2018-09-22T19:43:00.013Z,14.17
2018-09-22T19:45:34.232Z,14.23
2018-09-22T19:48:23.709Z,14.23
2018-09-22T19:53:46.844Z,14.19
2018-09-22T19:56:20.369Z,14.18
2018-09-22T19:58:48.549Z,14.20
2018-09-22T20:01:18.425Z,13.91
2018-09-22T20:03:47.852Z,13.88
2018-09-22T20:06:18.180Z,14.18
2018-09-22T20:08:50.034Z,14.01
2018-09-22T20:14:08.334Z,14.12
2018-09-22T20:16:38.546Z,14.32
2018-09-22T20:19:06.880Z,14.26
2018-09-22T20:21:36.742Z,14.23
2018-09-22T20:24:28.100Z,14.22
2018-09-22T20:27:15.434Z,14.08
2018-09-22T20:29:47.185Z,14.20
2018-09-22T20:32:21.505Z,14.04
2018-09-22T20:34:50.924Z,13.97
2018-09-22T20:37:27.734Z,13.88
2018-09-22T20:40:02.609Z,13.84
2018-09-22T20:42:31.421Z,13.92
2018-09-22T20:45:00.897Z,13.84
2018-09-22T20:47:29.951Z,13.88
2018-09-22T20:50:07.541Z,13.67
2018-09-22T20:52:46.220Z,13.69
2018-09-22T20:55:16.463Z,13.54
2018-09-22T20:57:46.748Z,13.67
2018-09-22T21:00:18.437Z,13.72
2018-09-22T21:02:50.508Z,13.58
2018-09-22T21:05:21.556Z,13.60
2018-09-22T21:07:50.183Z,13.45
2018-09-22T21:10:19.758Z,13.49
2018-09-22T21:12:48.236Z,13.52
2018-09-22T21:15:18.798Z,13.46
2018-09-22T21:17:48.378Z,13.40
2018-09-22T21:23:13.272Z,13.43
2018-09-22T21:25:45.363Z,13.43
2018-09-22T21:28:22.248Z,13.59
2018-09-22T21:30:51.474Z,13.61
2018-09-22T21:33:19.838Z,13.49
2018-09-22T21:35:50.320Z,13.42
2018-09-22T21:38:19.955Z,13.26
2018-09-22T21:40:51.100Z,13.28
2018-09-22T21:43:21.491Z,13.47
2018-09-22T21:45:52.053Z,13.36
2018-09-22T21:48:21.329Z,13.44
2018-09-22T21:50:52.541Z,13.39
2018-09-22T21:53:21.595Z,13.50
2018-09-22T21:55:57.923Z,13.53
2018-09-22T21:58:26.618Z,13.48
2018-09-22T22:01:06.164Z,13.54
2018-09-22T22:03:44.470Z,13.51
2018-09-22T22:06:27.564Z,13.49
2018-09-22T22:08:59.441Z,13.51
2018-09-22T22:11:32.758Z,13.50
2018-09-22T22:14:05.869Z,13.41
2018-09-22T22:16:36.409Z,13.49
2018-09-22T22:19:10.189Z,13.48
2018-09-22T22:21:41.762Z,13.42
2018-09-22T22:24:11.119Z,13.46
2018-09-22T22:26:44.119Z,13.44
2018-09-22T22:29:14.737Z,13.44
2018-09-22T22:31:51.169Z,13.15
2018-09-22T22:34:21.908Z,13.11
2018-09-22T22:37:02.212Z,13.16
2018-09-22T22:39:37.246Z,13.10
2018-09-22T22:42:07.809Z,13.16
2018-09-22T22:44:42.201Z,13.38
2018-09-22T22:47:15.341Z,13.41
2018-09-22T22:49:47.581Z,13.33
2018-09-22T22:52:16.500Z,13.32
2018-09-22T22:54:46.308Z,13.18
2018-09-22T22:57:17.533Z,13.22
2018-09-22T22:59:49.005Z,13.27
2018-09-22T23:02:22.004Z,13.34
2018-09-22T23:04:52.004Z,13.37
2018-09-22T23:07:26.497Z,13.30
2018-09-22T23:10:02.573Z,13.38
2018-09-22T23:12:34.144Z,13.36
2018-09-22T23:15:14.364Z,13.40
2018-09-22T23:17:44.089Z,13.38
2018-09-22T23:20:17.902Z,13.31
2018-09-22T23:22:47.050Z,13.37
2018-09-22T23:28:27.041Z,13.20
2018-09-22T23:30:56.995Z,13.21
2018-09-22T23:33:29.049Z,13.19
2018-09-22T23:35:57.754Z,13.37
2018-09-22T23:38:29.947Z,13.29
2018-09-22T23:40:59.812Z,13.38
2018-09-22T23:43:28.748Z,13.38
2018-09-22T23:45:58.046Z,13.53
2018-09-22T23:48:28.252Z,13.56
2018-09-22T23:50:58.359Z,13.39
2018-09-22T23:53:30.386Z,13.38
2018-09-22T23:56:00.774Z,13.48
2018-09-22T23:58:30.498Z,13.47
